Time;durP1;ratioP1;P1;durP2;ratioP2;P2;SDS_P1;SDS_P2;PMS_P1;PMS_P2;Temp;Humidity;BMP_temperature;BMP_pressure;BME280_temperature;BME280_humidity;BME280_pressure;Samples;Min_cycle;Max_cycle;Signal;HPM_P1;HPM_P2
2022/10/19 00:01:13;;;;;;;6.27;1.13;;;11.50;99.90;;;;;;5026020;28;20226;-52
2022/10/19 00:03:41;;;;;;;1.93;0.83;;;11.50;99.90;;;;;;5023176;28;20222;-47
2022/10/19 00:06:13;;;;;;;9.03;1.13;;;11.50;99.90;;;;;;5039951;28;20254;-48
2022/10/19 00:08:39;;;;;;;5.37;1.27;;;11.50;99.90;;;;;;5039123;28;20847;-48
2022/10/19 00:11:06;;;;;;;4.70;1.03;;;11.50;99.90;;;;;;5031846;28;21069;-47
2022/10/19 00:13:35;;;;;;;3.93;1.03;;;11.60;99.90;;;;;;5043573;28;21135;-47
2022/10/19 00:16:06;;;;;;;5.17;0.97;;;11.60;99.90;;;;;;5030315;28;20207;-51
2022/10/19 00:18:33;;;;;;;3.80;0.83;;;11.60;99.90;;;;;;5041955;28;20562;-49
2022/10/19 00:21:03;;;;;;;3.73;1.23;;;11.50;99.90;;;;;;5024874;28;20238;-49
2022/10/19 00:23:30;;;;;;;3.83;0.87;;;11.60;99.90;;;;;;5044072;28;20274;-48
2022/10/19 00:25:57;;;;;;;1.87;0.77;;;11.60;99.90;;;;;;5029184;28;20203;-49
2022/10/19 00:28:23;;;;;;;4.20;0.93;;;11.60;99.90;;;;;;5042156;28;20202;-49
2022/10/19 00:30:51;;;;;;;4.67;1.17;;;11.60;99.90;;;;;;5037532;28;20242;-50
2022/10/19 00:33:20;;;;;;;6.93;1.10;;;11.60;99.90;;;;;;5033189;28;20222;-47
2022/10/19 00:35:52;;;;;;;4.17;1.20;;;11.60;99.90;;;;;;5028278;28;20211;-50
2022/10/19 00:38:20;;;;;;;4.93;1.00;;;11.60;99.90;;;;;;5042116;28;20183;-50
2022/10/19 00:40:47;;;;;;;4.17;0.83;;;11.60;99.90;;;;;;5039835;28;20696;-51
2022/10/19 00:43:15;;;;;;;5.67;1.60;;;11.60;99.90;;;;;;5031045;28;20211;-47
2022/10/19 00:45:43;;;;;;;3.07;0.93;;;11.60;99.90;;;;;;5041599;28;20195;-48
2022/10/19 00:48:14;;;;;;;10.53;1.30;;;11.70;99.90;;;;;;5033216;28;20195;-47
2022/10/19 00:50:42;;;;;;;2.43;1.00;;;11.70;99.90;;;;;;5025979;28;20226;-48
2022/10/19 00:53:09;;;;;;;3.50;0.90;;;11.70;99.90;;;;;;5038736;28;20183;-50
2022/10/19 00:55:38;;;;;;;3.27;0.70;;;11.70;99.90;;;;;;5035906;28;20204;-49
2022/10/19 00:58:04;;;;;;;6.20;0.90;;;11.60;99.90;;;;;;5029050;28;20191;-48
2022/10/19 01:00:32;;;;;;;5.90;1.07;;;11.60;99.90;;;;;;5043019;28;20230;-47
2022/10/19 01:03:00;;;;;;;3.37;1.30;;;11.60;99.90;;;;;;5027264;28;20230;-50
2022/10/19 01:05:29;;;;;;;3.60;0.67;;;11.60;99.90;;;;;;5023398;28;20207;-49
2022/10/19 01:07:57;;;;;;;11.10;1.10;;;11.60;99.90;;;;;;5039048;28;20687;-48
2022/10/19 01:10:31;;;;;;;7.10;0.80;;;11.70;99.90;;;;;;5035894;28;20214;-47
2022/10/19 01:13:13;;;;;;;2.13;0.83;;;11.60;99.90;;;;;;5037783;28;20206;-48
2022/10/19 01:15:48;;;;;;;2.50;1.10;;;11.70;99.90;;;;;;5019518;28;20321;-50
2022/10/19 01:18:20;;;;;;;6.90;0.93;;;11.70;99.90;;;;;;5033366;28;20222;-46
2022/10/19 01:21:16;;;;;;;6.27;0.80;;;11.70;99.90;;;;;;5025151;28;20231;-47
2022/10/19 01:24:20;;;;;;;3.83;0.73;;;11.60;99.90;;;;;;5033754;28;20254;-49
2022/10/19 01:27:16;;;;;;;3.33;1.10;;;11.60;99.90;;;;;;5032746;28;20415;-49
2022/10/19 01:30:05;;;;;;;3.90;0.97;;;11.50;99.90;;;;;;5017492;28;21119;-49
2022/10/19 01:32:40;;;;;;;5.23;1.13;;;11.50;99.90;;;;;;5032664;28;20207;-49
2022/10/19 01:35:11;;;;;;;5.03;0.67;;;11.50;99.90;;;;;;5029935;28;20203;-47
2022/10/19 01:37:47;;;;;;;2.63;0.90;;;11.50;99.90;;;;;;5026094;28;20207;-48
2022/10/19 01:40:24;;;;;;;4.03;0.43;;;11.50;99.90;;;;;;5035047;28;20300;-46
2022/10/19 01:43:00;;;;;;;3.13;0.50;;;11.50;99.90;;;;;;5032576;28;20207;-46
2022/10/19 01:45:34;;;;;;;4.60;0.77;;;11.50;99.90;;;;;;5037068;28;20200;-50
2022/10/19 01:48:05;;;;;;;5.23;0.50;;;11.40;99.90;;;;;;5040660;28;20226;-47
2022/10/19 01:50:38;;;;;;;4.57;0.83;;;11.40;99.90;;;;;;5040732;28;20226;-50
2022/10/19 01:53:08;;;;;;;6.40;1.00;;;11.40;99.90;;;;;;5027820;28;20207;-52
2022/10/19 01:55:39;;;;;;;2.37;1.00;;;11.40;99.90;;;;;;5027859;28;20204;-50
2022/10/19 01:58:10;;;;;;;2.53;0.60;;;11.40;99.90;;;;;;5036864;28;20256;-47
2022/10/19 02:00:41;;;;;;;5.33;1.10;;;11.40;99.90;;;;;;5026061;28;20226;-53
2022/10/19 02:03:10;;;;;;;5.93;0.97;;;11.40;99.90;;;;;;5034929;28;20212;-48
2022/10/19 02:05:38;;;;;;;3.70;1.00;;;11.40;99.90;;;;;;5032546;28;20289;-52
2022/10/19 02:08:10;;;;;;;3.40;0.67;;;11.40;99.90;;;;;;5025375;28;20211;-47
2022/10/19 02:10:39;;;;;;;5.23;0.87;;;11.30;99.90;;;;;;5039435;28;20585;-51
2022/10/19 02:13:08;;;;;;;10.33;1.50;;;11.30;99.90;;;;;;5032047;28;20286;-47
2022/10/19 02:15:39;;;;;;;6.30;1.33;;;11.30;99.90;;;;;;5027518;28;20214;-49
2022/10/19 02:18:06;;;;;;;4.53;0.80;;;11.30;99.90;;;;;;5021056;28;20203;-53
2022/10/19 02:20:35;;;;;;;2.60;0.70;;;11.30;99.90;;;;;;5041022;28;20247;-49
2022/10/19 02:23:03;;;;;;;3.90;0.90;;;11.30;99.90;;;;;;5031349;28;20692;-49
2022/10/19 02:25:30;;;;;;;4.27;0.73;;;11.30;99.90;;;;;;5031423;28;20222;-48
2022/10/19 02:27:58;;;;;;;3.83;1.03;;;11.30;99.90;;;;;;5035370;28;20204;-52
2022/10/19 02:30:24;;;;;;;5.77;0.90;;;11.30;99.90;;;;;;5040917;28;20245;-48
2022/10/19 02:32:52;;;;;;;2.13;0.80;;;11.30;99.90;;;;;;5036055;28;20728;-51
2022/10/19 02:35:19;;;;;;;5.33;0.93;;;11.30;99.90;;;;;;5033917;28;20199;-47
2022/10/19 02:37:46;;;;;;;4.60;0.60;;;11.30;99.90;;;;;;5044862;28;20214;-48
2022/10/19 02:40:13;;;;;;;4.40;0.80;;;11.30;99.90;;;;;;5025153;28;20211;-46
2022/10/19 02:42:43;;;;;;;5.30;1.03;;;11.20;99.90;;;;;;5043904;28;20223;-47
2022/10/19 02:45:17;;;;;;;2.67;0.60;;;11.30;99.90;;;;;;5031461;28;20612;-51
2022/10/19 02:47:48;;;;;;;4.77;1.20;;;11.30;99.90;;;;;;5030131;28;20200;-47
2022/10/19 02:50:19;;;;;;;4.53;0.80;;;11.30;99.90;;;;;;5038797;28;20211;-47
2022/10/19 02:52:46;;;;;;;4.57;1.20;;;11.30;99.90;;;;;;5042486;28;20206;-46
2022/10/19 02:55:13;;;;;;;8.20;1.20;;;11.30;99.90;;;;;;5018939;28;20239;-48
2022/10/19 02:57:39;;;;;;;9.00;1.20;;;11.30;99.90;;;;;;5046510;28;20274;-50
2022/10/19 03:00:08;;;;;;;6.87;0.77;;;11.30;99.90;;;;;;5037361;28;20219;-50
2022/10/19 03:02:35;;;;;;;2.23;1.00;;;11.30;99.90;;;;;;5034690;28;20719;-48
2022/10/19 03:05:01;;;;;;;5.97;1.50;;;11.30;99.90;;;;;;5032916;28;20223;-51
2022/10/19 03:07:29;;;;;;;4.10;1.50;;;11.30;99.90;;;;;;5042336;28;20198;-49
2022/10/19 03:09:56;;;;;;;3.40;0.60;;;11.30;99.90;;;;;;5033377;28;20199;-52
2022/10/19 03:12:23;;;;;;;3.00;1.37;;;11.30;99.90;;;;;;5036118;28;20191;-48
2022/10/19 03:14:49;;;;;;;5.80;0.90;;;11.30;99.90;;;;;;5036845;28;20207;-49
2022/10/19 03:17:16;;;;;;;5.20;0.90;;;11.30;99.90;;;;;;5027170;28;20214;-48
2022/10/19 03:19:42;;;;;;;5.57;0.90;;;11.30;99.90;;;;;;5040027;28;20199;-49
2022/10/19 03:22:09;;;;;;;5.00;1.00;;;11.30;99.90;;;;;;5038580;28;20218;-47
2022/10/19 03:24:37;;;;;;;2.87;0.50;;;11.30;99.90;;;;;;5025594;28;20212;-49
2022/10/19 03:27:04;;;;;;;4.63;0.77;;;11.30;99.90;;;;;;5023031;28;20227;-50
2022/10/19 03:29:30;;;;;;;2.23;0.87;;;11.30;99.90;;;;;;5042361;28;20207;-50
2022/10/19 03:31:57;;;;;;;5.73;0.73;;;11.30;99.90;;;;;;5034161;28;20222;-51
2022/10/19 03:34:24;;;;;;;2.73;0.73;;;11.30;99.90;;;;;;5028745;28;20203;-49
2022/10/19 03:36:50;;;;;;;2.73;0.70;;;11.30;99.90;;;;;;5036058;28;20211;-48
2022/10/19 03:39:17;;;;;;;4.37;0.97;;;11.30;99.90;;;;;;5034454;28;20282;-51
2022/10/19 03:41:46;;;;;;;2.47;0.97;;;11.30;99.90;;;;;;5023830;28;20265;-48
2022/10/19 03:44:13;;;;;;;5.80;0.83;;;11.30;99.90;;;;;;5041311;28;20222;-47
2022/10/19 03:46:40;;;;;;;5.67;1.40;;;11.30;99.90;;;;;;5030686;28;20199;-46
2022/10/19 03:49:07;;;;;;;4.83;0.90;;;11.30;99.90;;;;;;5031276;28;20214;-48
2022/10/19 03:51:35;;;;;;;2.07;0.50;;;11.30;99.90;;;;;;5036654;28;20979;-48
2022/10/19 03:54:04;;;;;;;5.73;1.37;;;11.40;99.90;;;;;;5035097;28;20203;-46
2022/10/19 03:56:32;;;;;;;6.57;1.10;;;11.40;99.90;;;;;;5034996;28;20196;-50
2022/10/19 03:59:02;;;;;;;5.93;1.10;;;11.30;99.90;;;;;;5029749;28;20660;-48
2022/10/19 04:01:30;;;;;;;5.27;0.70;;;11.30;99.90;;;;;;5032295;28;20220;-50
2022/10/19 04:03:59;;;;;;;6.17;1.07;;;11.30;99.90;;;;;;5018830;28;20219;-46
2022/10/19 04:06:29;;;;;;;7.13;1.00;;;11.40;99.90;;;;;;5031206;28;20211;-51
2022/10/19 04:08:55;;;;;;;5.37;1.00;;;11.30;99.90;;;;;;5037581;28;20230;-47
2022/10/19 04:11:25;;;;;;;8.47;1.00;;;11.30;99.90;;;;;;5040378;28;20707;-49
2022/10/19 04:13:53;;;;;;;7.53;1.17;;;11.30;99.90;;;;;;5017774;28;20211;-51
2022/10/19 04:16:22;;;;;;;5.30;1.30;;;11.30;99.90;;;;;;5026755;28;20919;-47
2022/10/19 04:18:49;;;;;;;4.93;0.80;;;11.30;99.90;;;;;;5034697;28;20559;-48
2022/10/19 04:21:22;;;;;;;6.00;0.93;;;11.30;99.90;;;;;;5024684;28;78478;-48
2022/10/19 04:23:50;;;;;;;5.77;1.00;;;11.30;99.90;;;;;;5036828;28;20220;-47
2022/10/19 04:26:17;;;;;;;5.70;1.00;;;11.30;99.90;;;;;;5029249;28;20207;-49
2022/10/19 04:28:43;;;;;;;3.97;0.90;;;11.30;99.90;;;;;;5020624;28;20223;-47
2022/10/19 04:31:11;;;;;;;4.37;0.87;;;11.30;99.90;;;;;;5036321;28;20219;-52
2022/10/19 04:33:39;;;;;;;4.30;0.80;;;11.30;99.90;;;;;;5028569;28;20606;-47
2022/10/19 04:36:09;;;;;;;5.33;1.10;;;11.30;99.90;;;;;;5028607;28;20212;-50
2022/10/19 04:38:36;;;;;;;4.97;0.80;;;11.30;99.90;;;;;;5039507;28;20203;-47
2022/10/19 04:41:05;;;;;;;3.13;0.80;;;11.30;99.90;;;;;;5034452;28;20605;-50
2022/10/19 04:43:32;;;;;;;5.43;1.10;;;11.30;99.90;;;;;;5034798;28;20215;-50
2022/10/19 04:46:03;;;;;;;5.10;1.13;;;11.30;99.90;;;;;;5024283;28;20701;-49
2022/10/19 04:48:30;;;;;;;4.53;0.87;;;11.30;99.90;;;;;;5036707;28;20219;-47
2022/10/19 04:50:58;;;;;;;3.47;1.20;;;11.30;99.90;;;;;;5022600;28;20238;-49
2022/10/19 04:53:24;;;;;;;5.23;1.13;;;11.30;99.90;;;;;;5033322;28;20200;-47
2022/10/19 04:55:51;;;;;;;8.03;1.20;;;11.30;99.90;;;;;;5037813;28;20195;-48
2022/10/19 04:58:18;;;;;;;5.10;0.90;;;11.30;99.90;;;;;;5037019;28;20225;-49
2022/10/19 05:00:45;;;;;;;6.90;1.00;;;11.30;99.90;;;;;;5026008;28;20562;-49
2022/10/19 05:03:12;;;;;;;3.87;1.00;;;11.30;99.90;;;;;;5027017;28;20733;-50
2022/10/19 05:05:39;;;;;;;4.13;1.13;;;11.30;99.90;;;;;;5030534;28;20199;-46
2022/10/19 05:08:07;;;;;;;6.80;1.00;;;11.30;99.90;;;;;;5036073;28;20210;-46
2022/10/19 05:10:34;;;;;;;2.83;0.70;;;11.30;99.90;;;;;;5035194;28;20716;-47
2022/10/19 05:13:02;;;;;;;5.57;1.27;;;11.30;99.90;;;;;;5036082;28;20186;-47
2022/10/19 05:15:28;;;;;;;4.97;0.87;;;11.30;99.90;;;;;;5023588;28;20203;-48
2022/10/19 05:17:55;;;;;;;12.83;1.13;;;11.30;99.90;;;;;;5038621;28;20199;-49
2022/10/19 05:20:23;;;;;;;5.80;1.00;;;11.30;99.90;;;;;;5042480;28;20222;-48
2022/10/19 05:22:50;;;;;;;8.20;1.37;;;11.30;99.90;;;;;;5028637;28;20305;-47
2022/10/19 05:25:18;;;;;;;5.93;1.10;;;11.30;99.90;;;;;;5035525;28;20211;-47
2022/10/19 05:27:45;;;;;;;5.03;1.10;;;11.40;99.90;;;;;;5025637;28;20218;-50
2022/10/19 05:30:13;;;;;;;7.30;1.43;;;11.30;99.90;;;;;;5022508;28;20223;-46
2022/10/19 05:32:39;;;;;;;6.70;1.37;;;11.30;99.90;;;;;;5036008;28;20302;-50
2022/10/19 05:35:07;;;;;;;7.60;1.30;;;11.30;99.90;;;;;;5030568;28;20206;-51
2022/10/19 05:37:33;;;;;;;6.47;1.00;;;11.30;99.90;;;;;;5031219;28;20267;-46
2022/10/19 05:40:00;;;;;;;6.57;1.20;;;11.30;99.90;;;;;;5024024;28;20382;-46
2022/10/19 05:42:28;;;;;;;5.23;1.20;;;11.30;99.90;;;;;;5031347;28;20261;-47
2022/10/19 05:44:55;;;;;;;7.33;1.20;;;11.30;99.90;;;;;;5030363;28;20195;-50
2022/10/19 05:47:21;;;;;;;4.80;1.10;;;11.30;99.90;;;;;;5024016;28;20207;-44
2022/10/19 05:49:49;;;;;;;7.87;1.50;;;11.30;99.90;;;;;;5031033;28;20245;-51
2022/10/19 05:52:17;;;;;;;7.93;1.53;;;11.30;99.90;;;;;;5027179;28;20203;-48
2022/10/19 05:54:43;;;;;;;8.00;1.70;;;11.30;99.90;;;;;;5029744;28;20203;-46
2022/10/19 05:57:10;;;;;;;7.23;1.57;;;11.30;99.90;;;;;;5026770;28;20207;-47
2022/10/19 05:59:38;;;;;;;6.40;1.63;;;11.30;99.90;;;;;;5042561;28;20195;-50
2022/10/19 06:02:05;;;;;;;9.93;1.73;;;11.40;99.90;;;;;;5026359;28;20215;-46
2022/10/19 06:04:32;;;;;;;6.23;1.40;;;11.30;99.90;;;;;;5041618;28;20215;-47
2022/10/19 06:07:00;;;;;;;7.27;1.20;;;11.30;99.90;;;;;;5031035;28;20249;-48
2022/10/19 06:09:27;;;;;;;3.90;0.90;;;11.30;99.90;;;;;;5024379;28;20270;-47
2022/10/19 06:11:55;;;;;;;5.73;1.60;;;11.40;99.90;;;;;;5034594;28;20243;-47
2022/10/19 06:14:21;;;;;;;2.90;1.23;;;11.40;99.90;;;;;;5029472;28;20219;-50
2022/10/19 06:16:50;;;;;;;9.23;1.40;;;11.40;99.90;;;;;;5021224;28;20230;-48
2022/10/19 06:19:17;;;;;;;6.17;1.50;;;11.40;99.90;;;;;;5033973;28;20282;-46
2022/10/19 06:21:45;;;;;;;7.87;1.10;;;11.40;99.90;;;;;;5035418;28;20935;-47
2022/10/19 06:24:12;;;;;;;7.90;1.50;;;11.50;99.90;;;;;;5028973;28;20286;-47
2022/10/19 06:26:39;;;;;;;5.60;1.40;;;11.50;99.90;;;;;;5035572;28;20659;-47
2022/10/19 06:29:05;;;;;;;7.70;1.30;;;11.50;99.90;;;;;;5041408;28;20290;-47
2022/10/19 06:31:34;;;;;;;7.57;1.23;;;11.50;99.90;;;;;;5031085;28;20279;-52
2022/10/19 06:34:03;;;;;;;7.27;1.33;;;11.50;99.90;;;;;;5030508;28;20208;-45
2022/10/19 06:36:31;;;;;;;7.00;1.60;;;11.50;99.90;;;;;;5027267;28;20204;-49
2022/10/19 06:38:58;;;;;;;9.70;1.40;;;11.60;99.90;;;;;;5030441;28;20207;-44
2022/10/19 06:41:25;;;;;;;4.97;1.50;;;11.60;99.90;;;;;;5027848;28;20703;-46
2022/10/19 06:43:53;;;;;;;8.13;1.33;;;11.70;99.90;;;;;;5032850;28;20222;-44
2022/10/19 06:46:22;;;;;;;5.93;1.67;;;11.70;99.90;;;;;;5030071;28;20199;-44
2022/10/19 06:48:53;;;;;;;4.73;1.30;;;11.70;99.90;;;;;;5026124;28;20225;-44
2022/10/19 06:51:24;;;;;;;6.30;1.50;;;11.70;99.90;;;;;;5035981;28;20230;-48
2022/10/19 06:53:51;;;;;;;7.00;1.57;;;11.80;99.90;;;;;;5038151;28;20914;-49
2022/10/19 06:56:18;;;;;;;10.87;1.70;;;11.90;99.90;;;;;;5033231;28;20200;-45
2022/10/19 06:58:45;;;;;;;9.00;1.77;;;11.90;99.90;;;;;;5034945;28;20862;-48
2022/10/19 07:01:12;;;;;;;7.97;1.57;;;12.00;99.90;;;;;;5039911;28;20238;-44
2022/10/19 07:03:40;;;;;;;7.40;1.93;;;12.00;99.90;;;;;;5019974;28;20219;-45
2022/10/19 07:06:08;;;;;;;2.30;0.90;;;12.00;99.90;;;;;;5038917;28;20203;-44
2022/10/19 07:08:38;;;;;;;9.10;1.73;;;12.00;99.90;;;;;;5023885;28;20766;-51
2022/10/19 07:11:07;;;;;;;5.93;1.23;;;12.10;99.90;;;;;;5024401;28;20219;-44
2022/10/19 07:13:34;;;;;;;5.90;1.17;;;12.10;99.90;;;;;;5027577;28;20707;-48
2022/10/19 07:16:05;;;;;;;10.27;1.93;;;12.10;99.90;;;;;;5037416;28;20191;-45
2022/10/19 07:18:32;;;;;;;8.73;1.57;;;12.20;99.90;;;;;;5029031;28;20232;-46
2022/10/19 07:21:01;;;;;;;12.77;2.10;;;12.20;99.90;;;;;;5034631;28;20227;-44
2022/10/19 07:23:31;;;;;;;11.23;1.73;;;12.20;99.90;;;;;;5032643;28;20223;-47
2022/10/19 07:26:04;;;;;;;6.57;1.67;;;12.20;99.90;;;;;;5026438;28;21414;-47
2022/10/19 07:28:31;;;;;;;7.93;1.20;;;12.20;99.90;;;;;;5032541;28;20250;-49
2022/10/19 07:30:57;;;;;;;6.60;1.40;;;12.30;99.90;;;;;;5031500;28;20219;-46
2022/10/19 07:33:24;;;;;;;5.13;1.60;;;12.30;99.90;;;;;;5037712;28;20562;-46
2022/10/19 07:35:58;;;;;;;5.87;1.70;;;12.30;99.90;;;;;;5020978;28;20325;-45
2022/10/19 07:38:24;;;;;;;11.60;1.40;;;12.40;99.90;;;;;;5038170;28;20203;-47
2022/10/19 07:40:51;;;;;;;9.10;1.40;;;12.40;99.90;;;;;;5032206;28;20227;-45
2022/10/19 07:43:19;;;;;;;5.03;2.30;;;12.50;99.90;;;;;;5043628;28;20743;-46
2022/10/19 07:45:46;;;;;;;7.70;1.60;;;12.50;99.90;;;;;;5039702;28;20210;-44
2022/10/19 07:48:12;;;;;;;6.50;1.70;;;12.50;99.90;;;;;;5039970;28;20200;-46
2022/10/19 07:50:39;;;;;;;11.67;1.93;;;12.50;99.90;;;;;;5018987;28;20395;-45
2022/10/19 07:53:06;;;;;;;6.60;1.60;;;12.50;99.90;;;;;;5042757;28;20274;-47
2022/10/19 07:55:34;;;;;;;8.07;2.10;;;12.50;99.90;;;;;;5028318;28;20293;-49
2022/10/19 07:58:00;;;;;;;4.60;1.67;;;12.50;99.90;;;;;;5034909;28;20202;-47
2022/10/19 08:00:29;;;;;;;11.20;1.90;;;12.50;99.90;;;;;;5033382;28;20560;-47
2022/10/19 08:02:56;;;;;;;3.67;1.60;;;12.60;99.90;;;;;;5036375;28;20616;-45
2022/10/19 08:05:22;;;;;;;9.43;1.63;;;12.60;99.90;;;;;;5020013;28;20215;-45
2022/10/19 08:07:49;;;;;;;8.73;1.43;;;12.60;99.90;;;;;;5031472;28;20306;-50
2022/10/19 08:10:16;;;;;;;6.97;1.43;;;12.50;99.90;;;;;;5030748;28;20223;-47
2022/10/19 08:12:43;;;;;;;7.43;1.13;;;12.60;99.90;;;;;;5031291;28;20195;-44
2022/10/19 08:15:10;;;;;;;6.87;0.90;;;12.60;99.90;;;;;;5041316;28;20191;-45
2022/10/19 08:17:38;;;;;;;6.50;1.63;;;12.60;99.90;;;;;;5035736;28;20199;-47
2022/10/19 08:20:06;;;;;;;6.00;1.23;;;12.70;99.90;;;;;;5044342;28;20257;-45
2022/10/19 08:22:33;;;;;;;7.13;1.50;;;12.70;99.90;;;;;;5027444;28;20230;-46
2022/10/19 08:25:00;;;;;;;9.47;1.50;;;12.70;99.90;;;;;;5041980;28;20710;-45
2022/10/19 08:27:27;;;;;;;7.37;1.07;;;12.70;99.90;;;;;;5031553;28;20205;-47
2022/10/19 08:29:54;;;;;;;7.97;1.60;;;12.80;99.90;;;;;;5037691;28;20191;-46
2022/10/19 08:32:21;;;;;;;5.70;1.60;;;12.70;99.90;;;;;;5040718;28;20192;-49
2022/10/19 08:34:49;;;;;;;3.23;1.37;;;12.70;99.90;;;;;;5033554;28;20250;-49
2022/10/19 08:37:15;;;;;;;6.27;1.83;;;12.70;99.90;;;;;;5020710;28;20684;-46
2022/10/19 08:39:42;;;;;;;7.73;1.40;;;12.70;99.90;;;;;;5024391;28;20511;-48
2022/10/19 08:42:16;;;;;;;4.53;1.00;;;12.80;99.90;;;;;;5030535;28;20707;-45
2022/10/19 08:45:03;;;;;;;11.40;2.10;;;13.00;99.90;;;;;;5018895;28;20751;-46
2022/10/19 08:47:48;;;;;;;6.33;1.20;;;13.10;99.90;;;;;;5033664;28;20213;-48
2022/10/19 08:50:20;;;;;;;7.30;1.13;;;13.20;99.90;;;;;;5041133;28;20226;-45
2022/10/19 08:52:50;;;;;;;5.03;1.40;;;13.20;99.90;;;;;;5027542;28;20341;-49
2022/10/19 08:55:24;;;;;;;7.93;1.53;;;13.10;99.90;;;;;;5041441;28;20664;-46
2022/10/19 08:58:00;;;;;;;8.07;1.80;;;13.10;99.90;;;;;;5034085;28;20192;-46
2022/10/19 09:00:37;;;;;;;5.63;1.20;;;13.10;99.90;;;;;;5027531;28;20235;-47
2022/10/19 09:03:16;;;;;;;7.37;2.03;;;13.10;99.90;;;;;;5036350;28;20200;-47
2022/10/19 09:05:49;;;;;;;3.97;1.10;;;13.00;99.90;;;;;;5033195;28;20230;-45
2022/10/19 09:08:18;;;;;;;5.53;0.80;;;12.90;99.90;;;;;;5023978;28;20381;-46
2022/10/19 09:10:48;;;;;;;5.37;1.13;;;12.90;99.90;;;;;;5034938;28;20215;-46
2022/10/19 09:13:20;;;;;;;6.40;1.03;;;12.90;99.90;;;;;;5029616;28;20214;-49
2022/10/19 09:15:49;;;;;;;6.23;1.30;;;12.80;99.90;;;;;;5026258;28;20199;-47
2022/10/19 09:18:21;;;;;;;5.70;1.00;;;12.80;99.90;;;;;;5035930;28;20207;-48
2022/10/19 09:20:51;;;;;;;9.40;1.40;;;12.80;99.90;;;;;;5038261;28;20968;-45
2022/10/19 09:23:28;;;;;;;5.97;1.43;;;12.90;99.90;;;;;;5022387;28;20203;-48
2022/10/19 09:25:57;;;;;;;6.37;1.23;;;12.80;99.90;;;;;;5037188;28;20211;-47
2022/10/19 09:28:44;;;;;;;5.47;1.87;;;12.90;99.90;;;;;;5031886;28;20207;-49
2022/10/19 09:31:15;;;;;;;6.03;1.23;;;12.90;99.90;;;;;;5035599;28;20229;-49
2022/10/19 09:33:43;;;;;;;4.60;1.27;;;12.80;99.90;;;;;;5026494;28;20999;-45
2022/10/19 09:36:11;;;;;;;4.97;1.37;;;12.90;99.90;;;;;;5037473;28;20199;-47
2022/10/19 09:38:38;;;;;;;5.77;1.47;;;12.90;99.90;;;;;;5023135;28;20395;-47
2022/10/19 09:41:16;;;;;;;5.60;1.33;;;13.00;99.90;;;;;;5033406;28;20337;-45
2022/10/19 09:43:49;;;;;;;8.27;1.50;;;13.10;99.90;;;;;;5029814;28;20278;-48
2022/10/19 09:46:27;;;;;;;4.33;1.37;;;13.20;99.90;;;;;;5023195;28;20735;-48
2022/10/19 09:48:54;;;;;;;6.97;0.80;;;13.40;99.90;;;;;;5038224;28;20256;-48
2022/10/19 09:51:23;;;;;;;3.80;1.10;;;13.30;99.90;;;;;;5039958;28;20226;-51
2022/10/19 09:53:52;;;;;;;9.00;1.20;;;13.30;99.90;;;;;;5020645;28;21383;-46
2022/10/19 09:56:20;;;;;;;5.00;0.90;;;13.20;99.90;;;;;;5042443;28;20199;-47
2022/10/19 09:58:49;;;;;;;5.53;0.90;;;13.20;99.90;;;;;;5035475;28;20195;-48
2022/10/19 10:01:31;;;;;;;3.87;1.10;;;13.30;99.90;;;;;;5032266;28;20226;-45
2022/10/19 10:04:06;;;;;;;2.27;1.00;;;13.40;99.90;;;;;;5035644;28;20199;-45
2022/10/19 10:06:36;;;;;;;4.00;1.40;;;13.40;99.90;;;;;;5035546;28;20663;-46
2022/10/19 10:09:03;;;;;;;5.10;1.17;;;13.40;99.90;;;;;;5041521;28;20667;-46
2022/10/19 10:11:32;;;;;;;2.37;1.00;;;13.50;99.90;;;;;;5023613;28;20600;-47
2022/10/19 10:14:05;;;;;;;8.53;1.23;;;13.60;99.90;;;;;;5031740;28;20213;-49
2022/10/19 10:16:35;;;;;;;8.33;1.37;;;13.80;99.90;;;;;;5029049;28;20265;-46
2022/10/19 10:19:05;;;;;;;8.87;1.43;;;13.80;99.90;;;;;;5038568;28;20661;-46
2022/10/19 10:21:35;;;;;;;4.70;1.30;;;13.90;99.90;;;;;;5038057;28;20598;-45
2022/10/19 10:24:05;;;;;;;3.10;1.17;;;14.00;99.90;;;;;;5039537;28;20195;-47
2022/10/19 10:26:37;;;;;;;1.37;0.73;;;14.10;99.90;;;;;;5025453;28;20207;-45
2022/10/19 10:29:17;;;;;;;4.93;1.00;;;14.10;99.90;;;;;;5036641;28;20668;-45
2022/10/19 10:31:46;;;;;;;6.33;1.10;;;14.20;99.90;;;;;;5025569;28;20932;-47
2022/10/19 10:34:18;;;;;;;6.27;1.30;;;14.30;99.90;;;;;;5037869;28;20199;-45
2022/10/19 10:36:50;;;;;;;2.50;1.17;;;14.30;99.90;;;;;;5035014;28;20191;-45
2022/10/19 10:39:17;;;;;;;4.20;1.27;;;14.40;99.90;;;;;;5039699;28;20215;-46
2022/10/19 10:41:47;;;;;;;4.07;1.40;;;14.30;99.90;;;;;;5023880;28;20211;-49
2022/10/19 10:44:19;;;;;;;5.80;1.57;;;14.30;99.90;;;;;;5038394;28;20195;-45
2022/10/19 10:46:56;;;;;;;4.93;1.40;;;14.30;99.90;;;;;;5024162;28;20207;-50
2022/10/19 10:49:27;;;;;;;2.10;0.83;;;14.30;99.90;;;;;;5028240;28;20918;-46
2022/10/19 10:51:57;;;;;;;7.10;1.67;;;14.10;99.90;;;;;;5039474;28;20300;-45
2022/10/19 10:54:25;;;;;;;4.87;1.30;;;14.00;99.90;;;;;;5033224;28;20980;-47
2022/10/19 10:57:04;;;;;;;3.70;1.07;;;13.90;99.90;;;;;;5025801;28;20203;-45
2022/10/19 10:59:35;;;;;;;3.53;1.00;;;13.70;99.90;;;;;;5036103;28;20192;-46
2022/10/19 11:02:11;;;;;;;5.97;1.20;;;13.60;99.90;;;;;;5026480;28;20223;-47
2022/10/19 11:04:40;;;;;;;5.83;1.23;;;13.50;99.90;;;;;;5037788;28;20707;-45
2022/10/19 11:07:16;;;;;;;3.80;1.13;;;13.50;99.90;;;;;;5039159;28;20214;-47
2022/10/19 11:09:50;;;;;;;5.43;1.00;;;13.60;99.90;;;;;;5041526;28;20277;-47
2022/10/19 11:12:35;;;;;;;4.53;1.00;;;13.80;99.90;;;;;;5026812;28;20196;-45
2022/10/19 11:15:06;;;;;;;5.37;1.10;;;13.90;99.90;;;;;;5041130;28;20221;-45
2022/10/19 11:17:37;;;;;;;3.80;1.03;;;14.10;99.90;;;;;;5022954;28;20207;-45
2022/10/19 11:20:06;;;;;;;3.37;0.80;;;14.40;99.90;;;;;;5036653;28;20273;-46
2022/10/19 11:22:40;;;;;;;1.57;0.80;;;14.30;99.90;;;;;;5038206;28;21280;-46
2022/10/19 11:25:23;;;;;;;3.47;1.10;;;14.30;99.90;;;;;;5031058;28;20699;-48
2022/10/19 11:28:04;;;;;;;4.97;0.93;;;14.40;99.90;;;;;;5015472;28;20207;-46
2022/10/19 11:30:36;;;;;;;3.10;1.00;;;14.20;99.90;;;;;;5036558;28;20693;-48
2022/10/19 11:33:10;;;;;;;6.60;0.97;;;14.10;99.90;;;;;;5022096;28;20207;-48
2022/10/19 11:35:51;;;;;;;3.50;1.07;;;13.90;99.90;;;;;;5036117;28;20640;-48
2022/10/19 11:38:33;;;;;;;5.00;1.00;;;13.80;99.90;;;;;;5036847;28;20548;-47
2022/10/19 11:41:13;;;;;;;4.20;0.90;;;13.70;99.90;;;;;;5037223;28;20296;-45
2022/10/19 11:43:48;;;;;;;4.00;1.03;;;13.70;99.90;;;;;;5030418;28;20203;-51
2022/10/19 11:46:19;;;;;;;6.63;1.00;;;13.60;99.90;;;;;;5041863;28;20225;-45
2022/10/19 11:49:02;;;;;;;2.00;0.70;;;13.60;99.90;;;;;;5024982;28;20767;-47
2022/10/19 11:51:36;;;;;;;4.73;0.80;;;13.60;99.90;;;;;;5042613;28;20223;-47
2022/10/19 11:54:21;;;;;;;8.87;1.10;;;13.60;99.90;;;;;;5039500;28;20199;-47
2022/10/19 11:56:53;;;;;;;6.43;0.93;;;13.70;99.90;;;;;;5028779;28;20199;-52
2022/10/19 11:59:29;;;;;;;1.00;0.60;;;13.80;99.90;;;;;;5016301;28;20211;-48
2022/10/19 12:02:04;;;;;;;4.47;0.93;;;13.80;99.90;;;;;;5033981;28;20330;-45
2022/10/19 12:04:52;;;;;;;2.23;0.60;;;13.80;99.90;;;;;;5027661;28;20203;-47
2022/10/19 12:07:44;;;;;;;4.27;0.97;;;13.90;99.90;;;;;;5036773;28;20191;-45
2022/10/19 12:10:25;;;;;;;1.80;0.53;;;13.80;99.90;;;;;;5030830;28;20688;-51
2022/10/19 12:12:57;;;;;;;2.27;0.60;;;13.90;99.90;;;;;;5028233;28;20261;-48
2022/10/19 12:15:30;;;;;;;3.17;0.50;;;14.00;99.90;;;;;;5016393;28;20211;-47
2022/10/19 12:18:01;;;;;;;4.97;0.90;;;14.00;99.90;;;;;;5036491;28;20204;-46
2022/10/19 12:20:34;;;;;;;4.47;0.70;;;14.10;99.90;;;;;;5024374;28;20227;-48
2022/10/19 12:23:14;;;;;;;1.87;0.63;;;14.30;99.90;;;;;;5030343;28;20827;-51
2022/10/19 12:25:45;;;;;;;1.57;0.80;;;14.50;99.90;;;;;;5032634;28;20222;-49
2022/10/19 12:28:21;;;;;;;6.80;0.77;;;14.60;99.90;;;;;;5039159;28;20278;-49
2022/10/19 12:30:48;;;;;;;2.00;0.60;;;14.70;99.90;;;;;;5022762;28;20370;-48
2022/10/19 12:33:19;;;;;;;1.50;0.73;;;14.60;99.90;;;;;;5037633;28;20579;-49
2022/10/19 12:35:55;;;;;;;3.50;1.00;;;14.60;99.90;;;;;;5027051;28;20552;-52
2022/10/19 12:38:28;;;;;;;2.97;0.70;;;14.60;99.90;;;;;;5032956;28;20213;-47
2022/10/19 12:41:05;;;;;;;3.27;0.60;;;14.60;99.90;;;;;;5037429;28;20226;-49
2022/10/19 12:43:40;;;;;;;3.40;0.87;;;14.50;99.90;;;;;;5035517;28;21244;-45
2022/10/19 12:46:16;;;;;;;1.47;0.60;;;14.50;99.90;;;;;;5027218;28;20235;-49
2022/10/19 12:48:43;;;;;;;3.80;1.27;;;14.50;99.90;;;;;;5019502;28;20210;-44
2022/10/19 12:51:15;;;;;;;1.83;0.60;;;14.40;99.90;;;;;;5021268;28;21097;-45
2022/10/19 12:53:46;;;;;;;3.17;0.63;;;14.30;99.90;;;;;;5028181;28;20220;-46
2022/10/19 12:56:18;;;;;;;5.27;0.63;;;14.30;99.90;;;;;;5019896;28;20334;-48
2022/10/19 12:58:51;;;;;;;1.67;0.50;;;14.30;99.90;;;;;;5031883;28;20200;-52
2022/10/19 13:01:22;;;;;;;1.57;0.70;;;14.30;99.90;;;;;;5019150;28;20226;-47